Time;durP1;ratioP1;P1;durP2;ratioP2;P2;SDS_P1;SDS_P2;PMS_P1;PMS_P2;Temp;Humidity;BMP_temperature;BMP_pressure;BME280_temperature;BME280_humidity;BME280_pressure;Samples;Min_cycle;Max_cycle;Signal;HPM_P1;HPM_P2
2021/03/12 00:00:39;;;;;;;1.52;0.80;;;7.40;99.90;;;;;;5110581;28;20194;-50
2021/03/12 00:03:13;;;;;;;2.22;1.20;;;7.40;99.90;;;;;;5110990;28;20209;-51
2021/03/12 00:05:44;;;;;;;1.70;1.08;;;7.20;99.90;;;;;;5111598;28;20262;-50
2021/03/12 00:08:10;;;;;;;1.90;1.20;;;7.40;99.90;;;;;;5126925;28;20206;-50
2021/03/12 00:10:36;;;;;;;1.92;1.00;;;7.40;99.90;;;;;;5111839;28;20190;-50
2021/03/12 00:13:02;;;;;;;3.23;0.90;;;7.50;99.90;;;;;;5109699;28;20193;-50
2021/03/12 00:15:28;;;;;;;2.10;1.10;;;7.60;99.90;;;;;;5115242;27;20236;-49
2021/03/12 00:17:54;;;;;;;1.38;0.98;;;7.50;99.90;;;;;;5115245;27;20697;-51
2021/03/12 00:20:26;;;;;;;1.50;0.90;;;7.70;99.90;;;;;;5115092;27;20189;-49
2021/03/12 00:22:52;;;;;;;1.23;0.93;;;7.90;99.90;;;;;;5115108;27;20206;-51
2021/03/12 00:25:25;;;;;;;1.10;0.70;;;8.00;99.90;;;;;;5115131;27;20239;-50
2021/03/12 00:27:51;;;;;;;1.30;0.93;;;8.00;99.90;;;;;;5124468;27;20803;-52
2021/03/12 00:30:17;;;;;;;1.00;0.70;;;8.10;99.90;;;;;;5115371;27;20258;-51
2021/03/12 00:32:43;;;;;;;2.35;1.20;;;8.30;99.90;;;;;;5115716;27;20438;-52
2021/03/12 00:35:09;;;;;;;1.77;0.93;;;8.10;99.90;;;;;;5115135;27;20186;-52
2021/03/12 00:37:35;;;;;;;1.00;0.70;;;8.20;99.90;;;;;;5115459;27;20237;-50
2021/03/12 00:40:10;;;;;;;3.05;0.85;;;8.30;99.90;;;;;;5114608;27;20360;-52
2021/03/12 00:42:36;;;;;;;2.08;0.93;;;8.30;99.90;;;;;;5133806;27;20202;-51
2021/03/12 00:45:02;;;;;;;2.00;0.90;;;8.50;99.90;;;;;;5118484;27;20262;-52
2021/03/12 00:47:27;;;;;;;4.07;0.98;;;8.50;99.90;;;;;;5114899;27;20203;-52
2021/03/12 00:49:53;;;;;;;0.80;0.67;;;8.30;99.90;;;;;;5115280;27;20183;-51
2021/03/12 00:52:19;;;;;;;4.10;1.50;;;8.30;99.90;;;;;;5115590;27;20183;-52
2021/03/12 00:54:44;;;;;;;2.70;0.93;;;8.50;99.90;;;;;;5115157;27;20800;-51
2021/03/12 00:57:10;;;;;;;4.90;1.57;;;8.60;99.90;;;;;;5115192;27;20207;-51
2021/03/12 00:59:35;;;;;;;1.17;1.00;;;8.70;99.90;;;;;;5114973;27;20187;-51
2021/03/12 01:02:01;;;;;;;1.73;0.70;;;8.40;99.90;;;;;;5117610;27;20707;-51
2021/03/12 01:04:27;;;;;;;1.27;0.70;;;8.40;99.90;;;;;;5114932;27;20185;-50
2021/03/12 01:06:53;;;;;;;1.27;0.90;;;8.70;99.90;;;;;;5114679;27;20206;-51
2021/03/12 01:09:18;;;;;;;2.17;0.70;;;8.70;99.90;;;;;;5114195;27;20436;-51
2021/03/12 01:11:44;;;;;;;1.30;0.83;;;8.70;99.90;;;;;;5114463;27;20175;-51
2021/03/12 01:14:09;;;;;;;1.60;1.00;;;8.90;99.90;;;;;;5114317;27;20222;-51
2021/03/12 01:16:35;;;;;;;2.03;0.70;;;8.50;99.90;;;;;;5114842;27;20432;-51
2021/03/12 01:19:01;;;;;;;2.13;0.90;;;8.60;99.90;;;;;;5131903;27;20175;-52
2021/03/12 01:21:26;;;;;;;1.30;0.83;;;9.00;99.90;;;;;;5114155;27;20175;-52
2021/03/12 01:23:52;;;;;;;1.83;1.03;;;9.00;99.90;;;;;;5112540;28;20218;-51
2021/03/12 01:26:17;;;;;;;1.77;0.80;;;8.70;99.90;;;;;;5113867;27;20197;-50
2021/03/12 01:28:43;;;;;;;1.63;0.63;;;8.70;99.40;;;;;;5113715;27;20238;-52
2021/03/12 01:31:09;;;;;;;2.37;0.90;;;8.80;99.90;;;;;;5113779;27;20209;-52
2021/03/12 01:33:34;;;;;;;1.23;0.80;;;8.70;99.80;;;;;;5113860;27;20431;-51
2021/03/12 01:36:00;;;;;;;1.23;0.80;;;9.10;98.60;;;;;;5116598;27;20662;-52
2021/03/12 01:38:26;;;;;;;1.53;0.80;;;8.70;98.20;;;;;;5113212;27;20269;-51
2021/03/12 01:40:51;;;;;;;4.10;1.00;;;9.10;97.50;;;;;;5114060;27;20175;-52
2021/03/12 01:43:17;;;;;;;2.60;2.40;;;8.90;97.70;;;;;;5113068;27;20710;-50
2021/03/12 01:45:49;;;;;;;2.72;0.93;;;8.90;97.90;;;;;;5113784;27;20187;-50
2021/03/12 01:48:23;;;;;;;2.30;0.80;;;9.10;97.90;;;;;;5113242;27;20213;-51
2021/03/12 01:50:55;;;;;;;1.65;1.10;;;9.00;98.10;;;;;;5113789;27;20190;-52
2021/03/12 01:53:22;;;;;;;3.47;1.13;;;8.80;97.80;;;;;;5113862;27;20187;-51
2021/03/12 01:55:48;;;;;;;1.58;0.80;;;8.90;98.50;;;;;;5113443;27;20282;-50
2021/03/12 01:58:14;;;;;;;3.05;0.85;;;8.80;98.30;;;;;;5113021;27;20215;-50
2021/03/12 02:00:40;;;;;;;3.83;0.90;;;8.80;98.30;;;;;;5113392;27;20215;-51
2021/03/12 02:03:11;;;;;;;4.80;1.23;;;8.70;98.90;;;;;;5113067;27;20242;-51
2021/03/12 02:05:38;;;;;;;1.80;1.10;;;9.00;99.10;;;;;;5113331;27;20179;-52
2021/03/12 02:08:05;;;;;;;2.00;0.90;;;8.50;98.40;;;;;;5112916;27;20637;-51
2021/03/12 02:10:31;;;;;;;1.00;0.70;;;8.50;98.80;;;;;;5113879;27;20470;-51
2021/03/12 02:13:20;;;;;;;4.35;1.30;;;8.40;99.60;;;;;;5110587;28;20632;-51
2021/03/12 02:15:48;;;;;;;1.98;1.00;;;8.50;99.70;;;;;;5110617;27;20225;-51
2021/03/12 02:18:30;;;;;;;3.80;1.05;;;8.30;99.90;;;;;;5112789;27;20195;-51
2021/03/12 02:21:38;;;;;;;2.78;0.90;;;8.30;99.90;;;;;;5113234;27;20208;-51
2021/03/12 02:24:14;;;;;;;2.75;0.90;;;8.30;99.90;;;;;;5111376;27;20178;-50
2021/03/12 02:26:42;;;;;;;2.60;1.40;;;8.20;99.90;;;;;;5113529;27;20197;-50
2021/03/12 02:29:20;;;;;;;2.00;1.00;;;8.10;99.90;;;;;;5112523;27;20178;-50
2021/03/12 02:31:47;;;;;;;1.70;1.33;;;8.30;99.90;;;;;;5112773;27;20542;-51
2021/03/12 02:34:15;;;;;;;3.05;0.90;;;8.00;99.90;;;;;;5103535;27;20179;-51
2021/03/12 02:36:45;;;;;;;1.20;0.90;;;7.90;99.90;;;;;;5112277;27;20279;-50
2021/03/12 02:39:14;;;;;;;2.97;0.80;;;7.90;99.90;;;;;;5108579;28;20244;-52
2021/03/12 02:41:41;;;;;;;2.70;1.00;;;8.00;99.90;;;;;;5108752;27;20397;-51
2021/03/12 02:44:08;;;;;;;1.35;0.70;;;7.70;99.90;;;;;;5112845;27;20261;-51
2021/03/12 02:46:35;;;;;;;2.08;0.95;;;8.00;99.90;;;;;;5112568;27;20187;-50
2021/03/12 02:49:01;;;;;;;2.42;1.27;;;8.00;99.80;;;;;;5111951;27;20182;-51
2021/03/12 02:51:28;;;;;;;1.45;0.98;;;7.80;99.60;;;;;;5112631;27;20186;-51
2021/03/12 02:53:54;;;;;;;2.05;0.95;;;7.90;99.80;;;;;;5112109;27;20228;-51
2021/03/12 02:56:21;;;;;;;1.80;1.00;;;7.60;99.40;;;;;;5112452;27;20190;-50
2021/03/12 02:58:48;;;;;;;0.80;0.70;;;7.80;99.50;;;;;;5111599;27;20460;-51
2021/03/12 03:01:14;;;;;;;1.88;0.80;;;7.80;99.70;;;;;;5123083;27;20201;-51
2021/03/12 03:03:41;;;;;;;3.63;1.88;;;7.60;99.20;;;;;;5111696;27;20210;-51
2021/03/12 03:06:08;;;;;;;1.60;1.00;;;7.80;99.10;;;;;;5112207;27;20183;-52
2021/03/12 03:08:36;;;;;;;2.38;0.90;;;7.80;99.40;;;;;;5111844;27;20198;-51
2021/03/12 03:11:05;;;;;;;1.17;0.80;;;7.60;99.30;;;;;;5111970;27;20179;-51
2021/03/12 03:13:36;;;;;;;1.15;0.70;;;7.60;99.20;;;;;;5111767;27;20632;-50
2021/03/12 03:16:05;;;;;;;1.65;1.13;;;7.90;99.60;;;;;;5112083;27;20194;-52
2021/03/12 03:18:33;;;;;;;2.25;0.85;;;7.60;99.50;;;;;;5133332;27;20237;-50
2021/03/12 03:21:00;;;;;;;1.70;1.15;;;7.50;99.70;;;;;;5111631;27;20189;-51
2021/03/12 03:23:27;;;;;;;2.55;0.88;;;7.60;99.90;;;;;;5111941;27;20255;-51
2021/03/12 03:25:54;;;;;;;0.70;0.70;;;7.60;99.80;;;;;;5112049;27;20551;-51
2021/03/12 03:28:20;;;;;;;1.83;0.80;;;7.70;99.90;;;;;;5111544;27;20932;-51
2021/03/12 03:30:46;;;;;;;2.13;0.87;;;7.50;99.50;;;;;;5111668;27;20192;-51
2021/03/12 03:33:12;;;;;;;1.37;0.83;;;7.50;99.00;;;;;;5111640;27;20447;-52
2021/03/12 03:35:37;;;;;;;3.80;1.30;;;7.40;99.40;;;;;;5112077;28;20193;-52
2021/03/12 03:38:03;;;;;;;3.23;1.40;;;7.60;99.30;;;;;;5111631;27;20222;-51
2021/03/12 03:40:29;;;;;;;2.90;0.90;;;7.50;98.70;;;;;;5111421;27;20433;-51
2021/03/12 03:42:58;;;;;;;3.17;0.90;;;7.60;98.80;;;;;;5111079;28;20679;-50
2021/03/12 03:45:27;;;;;;;1.90;0.98;;;7.50;98.70;;;;;;5112093;28;20217;-51
2021/03/12 03:47:54;;;;;;;2.58;1.00;;;7.50;98.40;;;;;;5111356;28;20197;-51
2021/03/12 03:50:20;;;;;;;1.00;0.70;;;7.50;98.90;;;;;;5111875;28;20175;-51
2021/03/12 03:52:46;;;;;;;2.65;0.70;;;7.60;98.10;;;;;;5112535;28;20593;-51
2021/03/12 03:55:13;;;;;;;1.80;0.80;;;7.60;98.40;;;;;;5111819;28;20232;-52
2021/03/12 03:57:39;;;;;;;2.45;0.93;;;7.30;96.90;;;;;;5111564;28;20566;-51
2021/03/12 04:00:06;;;;;;;3.63;1.13;;;7.60;97.40;;;;;;5111030;28;20239;-50
2021/03/12 04:02:33;;;;;;;3.70;0.98;;;7.50;96.80;;;;;;5112035;28;20813;-51
2021/03/12 04:05:02;;;;;;;1.63;0.90;;;7.40;96.30;;;;;;5112729;28;20704;-51
2021/03/12 04:07:28;;;;;;;1.70;1.25;;;7.60;96.80;;;;;;5111950;28;20704;-51
2021/03/12 04:09:55;;;;;;;3.65;1.00;;;7.60;96.80;;;;;;5128750;27;20228;-52
2021/03/12 04:12:23;;;;;;;1.77;0.82;;;7.40;96.00;;;;;;5111394;28;20235;-52
2021/03/12 04:14:49;;;;;;;3.85;1.02;;;7.50;96.10;;;;;;5117832;27;20201;-50
2021/03/12 04:17:15;;;;;;;1.50;1.00;;;7.40;95.50;;;;;;5111503;28;20198;-50
2021/03/12 04:19:43;;;;;;;1.50;0.85;;;7.40;95.50;;;;;;5109660;28;20666;-51
2021/03/12 04:22:10;;;;;;;2.42;1.15;;;7.40;95.40;;;;;;5111008;28;20206;-51
2021/03/12 04:24:36;;;;;;;1.90;1.15;;;7.70;95.10;;;;;;5110985;28;20179;-51
2021/03/12 04:27:02;;;;;;;1.88;0.95;;;7.60;94.60;;;;;;5111196;28;20558;-52
2021/03/12 04:29:29;;;;;;;1.67;1.00;;;7.40;93.80;;;;;;5110908;28;20686;-51
2021/03/12 04:31:55;;;;;;;2.05;1.10;;;7.50;93.60;;;;;;5111099;28;20210;-52
2021/03/12 04:34:21;;;;;;;1.25;1.15;;;7.60;93.90;;;;;;5111221;28;20191;-52
2021/03/12 04:36:47;;;;;;;2.33;1.40;;;7.70;94.10;;;;;;5109777;27;20190;-52
2021/03/12 04:39:13;;;;;;;7.07;1.10;;;7.60;94.00;;;;;;5110512;28;20429;-51
2021/03/12 04:41:40;;;;;;;1.88;1.27;;;7.70;93.20;;;;;;5110178;28;20187;-52
2021/03/12 04:44:08;;;;;;;3.95;1.35;;;7.70;92.60;;;;;;5111061;28;20600;-51
2021/03/12 04:46:38;;;;;;;2.75;1.08;;;7.60;92.40;;;;;;5111174;28;20605;-51
2021/03/12 04:49:07;;;;;;;1.60;1.23;;;7.70;92.90;;;;;;5110658;28;20190;-50
2021/03/12 04:51:33;;;;;;;2.50;1.33;;;7.90;92.70;;;;;;5111034;28;20602;-51
2021/03/12 04:53:59;;;;;;;6.53;1.20;;;7.90;92.70;;;;;;5110729;28;20183;-51
2021/03/12 04:56:25;;;;;;;2.17;1.40;;;7.80;92.10;;;;;;5110335;28;20558;-51
2021/03/12 04:58:51;;;;;;;2.67;1.20;;;7.70;92.00;;;;;;5111701;27;20848;-52
2021/03/12 05:01:17;;;;;;;1.67;0.98;;;7.90;92.00;;;;;;5134190;27;20229;-50
2021/03/12 05:03:43;;;;;;;3.67;1.08;;;7.60;92.10;;;;;;5114440;27;20207;-50
2021/03/12 05:06:10;;;;;;;2.77;1.20;;;7.90;92.20;;;;;;5114543;27;20198;-50
2021/03/12 05:08:37;;;;;;;2.55;0.80;;;7.70;91.90;;;;;;5113778;27;20464;-49
2021/03/12 05:11:08;;;;;;;1.05;0.85;;;7.80;91.70;;;;;;5114303;27;20182;-50
2021/03/12 05:13:34;;;;;;;5.93;1.08;;;7.90;91.40;;;;;;5110770;28;20647;-49
2021/03/12 05:16:00;;;;;;;2.78;1.10;;;7.80;92.00;;;;;;5114304;27;20236;-50
2021/03/12 05:18:26;;;;;;;1.43;0.87;;;7.90;92.20;;;;;;5113340;27;20675;-49
2021/03/12 05:20:52;;;;;;;1.87;0.83;;;7.60;91.90;;;;;;5113873;27;20550;-50
2021/03/12 05:23:19;;;;;;;1.75;0.95;;;7.90;91.70;;;;;;5114061;27;20359;-51
2021/03/12 05:25:46;;;;;;;3.42;2.03;;;7.70;91.80;;;;;;5113371;27;20182;-50
2021/03/12 05:28:12;;;;;;;4.00;0.90;;;7.70;92.30;;;;;;5108205;27;20202;-49
2021/03/12 05:30:38;;;;;;;2.33;1.47;;;7.90;92.30;;;;;;5114079;27;20446;-50
2021/03/12 05:33:04;;;;;;;1.10;1.00;;;7.90;91.80;;;;;;5113902;27;20182;-50
2021/03/12 05:35:30;;;;;;;1.50;1.10;;;7.80;92.90;;;;;;5113371;27;20777;-51
2021/03/12 05:37:56;;;;;;;1.80;1.10;;;7.90;92.70;;;;;;5112809;27;20399;-50
2021/03/12 05:40:21;;;;;;;4.53;1.10;;;7.80;92.60;;;;;;5113231;27;20680;-50
2021/03/12 05:42:51;;;;;;;2.43;1.10;;;7.80;92.60;;;;;;5113517;27;20539;-49
2021/03/12 05:45:19;;;;;;;2.50;0.90;;;7.80;92.70;;;;;;5112060;27;20568;-50
2021/03/12 05:47:45;;;;;;;2.35;1.00;;;7.90;92.50;;;;;;5111694;27;20202;-50
2021/03/12 05:50:11;;;;;;;3.20;1.10;;;7.60;92.30;;;;;;5111464;27;20214;-50
2021/03/12 05:52:38;;;;;;;4.72;1.48;;;7.50;92.40;;;;;;5101171;27;20189;-49
2021/03/12 05:55:04;;;;;;;2.00;1.00;;;7.90;92.70;;;;;;5111648;27;20527;-49
2021/03/12 05:57:30;;;;;;;5.50;1.30;;;7.70;92.90;;;;;;5105067;27;20199;-51
2021/03/12 05:59:58;;;;;;;0.87;0.73;;;7.80;93.00;;;;;;5106299;27;20587;-51
2021/03/12 06:02:25;;;;;;;3.05;1.00;;;7.90;92.90;;;;;;5103422;27;20678;-51
2021/03/12 06:04:50;;;;;;;2.63;1.98;;;7.60;92.90;;;;;;5105829;27;20270;-52
2021/03/12 06:07:16;;;;;;;2.47;1.60;;;7.80;93.90;;;;;;5110092;27;20356;-55
2021/03/12 06:09:43;;;;;;;5.10;2.20;;;7.90;93.90;;;;;;5107018;27;20444;-54
2021/03/12 06:12:10;;;;;;;7.85;2.55;;;7.80;94.10;;;;;;5104636;27;20299;-56
2021/03/12 06:14:53;;;;;;;1.70;1.05;;;7.70;94.20;;;;;;5125563;27;20197;-52
2021/03/12 06:17:37;;;;;;;1.65;1.40;;;7.60;94.30;;;;;;5106934;27;20683;-53
2021/03/12 06:20:23;;;;;;;2.60;1.20;;;7.70;94.00;;;;;;5105286;27;20182;-50
2021/03/12 06:22:57;;;;;;;2.45;1.40;;;7.70;94.50;;;;;;5106924;27;20204;-51
2021/03/12 06:25:29;;;;;;;2.20;1.20;;;7.70;94.90;;;;;;5106485;27;20233;-51
2021/03/12 06:27:56;;;;;;;5.15;1.23;;;7.80;94.60;;;;;;5104732;27;20225;-51
2021/03/12 06:30:23;;;;;;;3.25;1.00;;;7.50;94.90;;;;;;5102012;27;20184;-51
2021/03/12 06:32:54;;;;;;;1.48;0.70;;;7.60;94.90;;;;;;5111812;27;20647;-50
2021/03/12 06:35:23;;;;;;;4.80;1.10;;;7.30;95.10;;;;;;5110945;27;20187;-51
2021/03/12 06:37:49;;;;;;;2.13;1.05;;;7.60;95.30;;;;;;5110614;27;20236;-52
2021/03/12 06:40:21;;;;;;;3.88;1.35;;;7.30;96.10;;;;;;5100942;27;20186;-53
2021/03/12 06:43:12;;;;;;;1.42;1.17;;;7.60;96.60;;;;;;5104266;27;20206;-53
2021/03/12 06:45:40;;;;;;;2.50;1.20;;;7.40;96.00;;;;;;5110528;27;20182;-54
2021/03/12 06:48:18;;;;;;;3.10;1.02;;;7.70;96.20;;;;;;5102056;27;20566;-53
2021/03/12 06:50:53;;;;;;;4.93;1.15;;;7.50;96.40;;;;;;5129792;27;20168;-54
2021/03/12 06:53:37;;;;;;;8.23;1.95;;;7.70;96.30;;;;;;5102781;27;20816;-54
2021/03/12 06:56:07;;;;;;;3.70;1.30;;;8.30;97.50;;;;;;5098185;27;20194;-54
2021/03/12 06:58:33;;;;;;;4.32;1.77;;;7.70;96.50;;;;;;5102439;27;20322;-55
2021/03/12 07:01:00;;;;;;;5.25;1.83;;;7.80;96.80;;;;;;5110928;27;20201;-53
2021/03/12 07:03:29;;;;;;;1.50;0.82;;;7.70;96.70;;;;;;5109699;27;20211;-53
2021/03/12 07:06:03;;;;;;;2.80;0.70;;;7.50;95.50;;;;;;5123131;27;20179;-52
2021/03/12 07:08:35;;;;;;;2.15;1.00;;;7.60;95.60;;;;;;5112338;27;20205;-53
2021/03/12 07:11:02;;;;;;;3.72;1.10;;;7.70;96.20;;;;;;5108362;27;20187;-54
2021/03/12 07:13:28;;;;;;;3.55;1.25;;;7.70;96.70;;;;;;5108510;28;20187;-54
2021/03/12 07:15:56;;;;;;;2.88;1.10;;;7.50;97.00;;;;;;5110151;27;20194;-54
2021/03/12 07:18:22;;;;;;;2.45;1.38;;;7.70;97.70;;;;;;5110883;27;20198;-52
2021/03/12 07:20:48;;;;;;;1.92;1.35;;;7.60;97.60;;;;;;5110483;27;20183;-51
2021/03/12 07:23:17;;;;;;;2.10;1.20;;;7.80;97.90;;;;;;5106345;27;20305;-52
2021/03/12 07:25:45;;;;;;;1.98;1.00;;;8.20;97.60;;;;;;5116955;27;20179;-52
2021/03/12 07:28:15;;;;;;;1.73;1.08;;;8.80;96.50;;;;;;5105901;28;20198;-51
2021/03/12 07:30:43;;;;;;;4.10;1.08;;;9.10;96.30;;;;;;5101595;28;20186;-51
2021/03/12 07:33:09;;;;;;;1.20;0.80;;;9.30;95.20;;;;;;5104585;27;20189;-53
2021/03/12 07:35:37;;;;;;;2.17;1.17;;;9.40;94.20;;;;;;5108211;27;20543;-52
2021/03/12 07:38:06;;;;;;;1.00;0.77;;;9.60;94.00;;;;;;5104517;27;20207;-54
2021/03/12 07:40:33;;;;;;;1.42;0.90;;;9.80;93.50;;;;;;5108850;28;20182;-52
2021/03/12 07:42:59;;;;;;;2.17;1.10;;;9.80;92.90;;;;;;5111366;27;20203;-53
2021/03/12 07:45:26;;;;;;;1.33;0.80;;;9.80;93.10;;;;;;5108459;28;20636;-53
2021/03/12 07:47:51;;;;;;;1.45;0.80;;;9.40;93.40;;;;;;5122819;27;20207;-52
2021/03/12 07:50:32;;;;;;;2.70;1.00;;;9.70;93.70;;;;;;5103675;28;20649;-49
2021/03/12 07:53:00;;;;;;;1.90;1.17;;;9.40;93.60;;;;;;5127906;27;20438;-51
2021/03/12 07:55:35;;;;;;;3.47;0.90;;;9.40;93.90;;;;;;5109130;28;20179;-52
2021/03/12 07:58:05;;;;;;;2.58;2.00;;;9.50;93.70;;;;;;5108671;28;20203;-53
2021/03/12 08:00:50;;;;;;;1.40;1.25;;;9.50;93.60;;;;;;5100428;28;20186;-51
2021/03/12 08:03:39;;;;;;;2.58;1.65;;;9.50;93.60;;;;;;5123295;28;20591;-52
2021/03/12 08:06:25;;;;;;;3.78;1.15;;;9.10;93.40;;;;;;5108795;28;20199;-52
2021/03/12 08:08:50;;;;;;;5.95;2.08;;;9.30;93.60;;;;;;5099514;28;20202;-52
2021/03/12 08:11:33;;;;;;;4.10;1.60;;;9.20;94.70;;;;;;5109483;28;20562;-54
2021/03/12 08:14:08;;;;;;;6.80;1.58;;;9.50;94.90;;;;;;5103637;28;20199;-55
2021/03/12 08:16:35;;;;;;;2.40;1.17;;;9.50;94.60;;;;;;5109882;27;20217;-52
2021/03/12 08:19:36;;;;;;;2.83;0.90;;;9.50;92.10;;;;;;5101015;28;20473;-54
2021/03/12 08:22:22;;;;;;;1.27;0.85;;;9.80;91.50;;;;;;5109751;28;20444;-54
2021/03/12 08:24:50;;;;;;;1.85;1.00;;;9.80;91.60;;;;;;5108581;28;20184;-54
2021/03/12 08:27:37;;;;;;;1.42;0.70;;;10.10;90.80;;;;;;5108006;28;20207;-53
2021/03/12 08:30:07;;;;;;;3.00;1.05;;;10.40;90.20;;;;;;5118907;27;20184;-54
2021/03/12 08:32:38;;;;;;;1.55;0.98;;;10.70;90.10;;;;;;5108000;28;20229;-54
2021/03/12 08:35:05;;;;;;;3.33;0.80;;;10.90;89.30;;;;;;5112545;27;20544;-54
2021/03/12 08:37:31;;;;;;;4.43;1.00;;;11.20;88.40;;;;;;5113723;27;20574;-52
2021/03/12 08:40:15;;;;;;;2.70;1.00;;;11.20;88.00;;;;;;5109746;27;20187;-55
2021/03/12 08:43:01;;;;;;;2.78;1.30;;;10.50;86.30;;;;;;5108658;27;20688;-55
2021/03/12 08:45:42;;;;;;;2.63;0.93;;;11.00;87.00;;;;;;5108941;27;20246;-51
2021/03/12 08:48:19;;;;;;;3.80;1.35;;;10.50;86.70;;;;;;5107088;27;20211;-55
2021/03/12 08:51:00;;;;;;;1.35;0.70;;;10.60;87.60;;;;;;5107826;27;20172;-53
2021/03/12 08:53:28;;;;;;;2.28;0.93;;;10.20;87.60;;;;;;5108691;27;20195;-50
2021/03/12 08:55:56;;;;;;;2.15;0.90;;;10.30;88.00;;;;;;5113236;27;20552;-52
2021/03/12 08:58:29;;;;;;;2.05;1.13;;;10.40;88.50;;;;;;5100787;27;20636;-54
2021/03/12 09:00:57;;;;;;;2.60;1.23;;;10.10;88.40;;;;;;5128566;27;20885;-53
2021/03/12 09:03:30;;;;;;;2.40;1.45;;;10.20;87.70;;;;;;5123061;27;20930;-52
2021/03/12 09:06:07;;;;;;;1.88;0.90;;;10.60;86.10;;;;;;5114539;27;20176;-54
2021/03/12 09:08:35;;;;;;;3.50;1.20;;;11.00;85.20;;;;;;5113945;27;20540;-57
2021/03/12 09:11:02;;;;;;;1.85;0.90;;;11.00;82.30;;;;;;5111640;27;20273;-53
2021/03/12 09:13:30;;;;;;;2.45;1.33;;;11.20;83.50;;;;;;5111490;27;20191;-53
2021/03/12 09:15:57;;;;;;;3.70;1.10;;;11.20;82.10;;;;;;5120055;27;20195;-54
2021/03/12 09:18:24;;;;;;;2.60;1.00;;;10.80;79.40;;;;;;5108522;27;20702;-54
2021/03/12 09:20:53;;;;;;;1.38;0.90;;;10.90;78.60;;;;;;5103346;27;20647;-54
2021/03/12 09:23:32;;;;;;;1.48;1.10;;;10.90;78.80;;;;;;5104381;27;20230;-53
2021/03/12 09:25:58;;;;;;;1.92;0.85;;;11.00;79.20;;;;;;5106372;27;20231;-54
2021/03/12 09:28:28;;;;;;;1.63;0.90;;;10.50;79.20;;;;;;5106906;27;20618;-54
2021/03/12 09:30:54;;;;;;;5.82;1.17;;;10.40;79.40;;;;;;5110477;27;20429;-55
2021/03/12 09:33:26;;;;;;;1.40;1.00;;;10.50;80.10;;;;;;5129196;27;20488;-54
2021/03/12 09:35:52;;;;;;;0.93;0.60;;;10.50;80.20;;;;;;5109482;27;20192;-54
2021/03/12 09:38:28;;;;;;;2.90;0.80;;;10.40;80.30;;;;;;5111152;27;20582;-53
2021/03/12 09:40:54;;;;;;;0.90;0.80;;;10.30;80.50;;;;;;5108294;27;20531;-54
2021/03/12 09:43:19;;;;;;;1.60;0.90;;;10.60;80.70;;;;;;5112724;27;20771;-54
2021/03/12 09:45:49;;;;;;;1.88;0.93;;;10.50;80.30;;;;;;5108227;27;20472;-55
2021/03/12 09:48:15;;;;;;;2.45;1.30;;;10.60;80.00;;;;;;5114443;27;20230;-54
2021/03/12 09:50:41;;;;;;;2.27;1.03;;;10.50;80.40;;;;;;5109006;27;20206;-56
2021/03/12 09:55:42;;;;;;;2.05;0.80;;;10.50;80.80;;;;;;5089882;28;20233;-55
2021/03/12 09:58:09;;;;;;;1.63;1.20;;;10.60;80.50;;;;;;5086803;28;20223;-54
2021/03/12 10:00:35;;;;;;;2.78;1.17;;;10.80;81.10;;;;;;5071517;28;20811;-52
2021/03/12 10:03:02;;;;;;;1.27;0.90;;;10.50;80.40;;;;;;5072697;28;20596;-54
2021/03/12 10:05:28;;;;;;;0.90;0.60;;;10.70;80.20;;;;;;5081177;28;20279;-55
2021/03/12 10:07:54;;;;;;;3.10;1.08;;;10.90;80.30;;;;;;5075725;28;20754;-55
2021/03/12 10:10:27;;;;;;;2.10;1.03;;;10.60;81.00;;;;;;5076086;28;20181;-55
2021/03/12 10:12:56;;;;;;;2.38;1.50;;;11.00;81.90;;;;;;5076462;28;20255;-57
2021/03/12 10:15:23;;;;;;;4.68;1.27;;;10.80;81.80;;;;;;5072950;28;20186;-54
2021/03/12 10:17:50;;;;;;;1.10;1.00;;;10.90;81.50;;;;;;5079142;28;20242;-55
2021/03/12 10:20:18;;;;;;;3.03;0.75;;;11.40;80.60;;;;;;5088562;28;20190;-55
2021/03/12 10:22:46;;;;;;;2.63;0.80;;;11.90;79.20;;;;;;5074041;28;20236;-54
2021/03/12 10:25:25;;;;;;;1.30;0.95;;;11.60;78.40;;;;;;5080120;28;20583;-52
2021/03/12 10:28:00;;;;;;;2.50;1.23;;;11.50;78.80;;;;;;5078164;28;20236;-51
2021/03/12 10:30:37;;;;;;;3.38;0.70;;;11.80;79.90;;;;;;5074522;28;20240;-53
2021/03/12 10:33:06;;;;;;;1.40;0.80;;;11.50;80.50;;;;;;5071345;28;20242;-54
2021/03/12 10:35:44;;;;;;;1.35;1.05;;;11.60;82.10;;;;;;5080255;28;20532;-54
2021/03/12 10:38:19;;;;;;;2.22;1.10;;;11.80;83.90;;;;;;5075587;28;20673;-55
2021/03/12 10:40:55;;;;;;;1.80;0.98;;;11.70;85.80;;;;;;5073070;28;20278;-55
2021/03/12 10:43:24;;;;;;;1.08;0.70;;;11.90;86.10;;;;;;5074856;28;20808;-55
2021/03/12 10:45:58;;;;;;;2.35;0.70;;;11.90;84.90;;;;;;5086434;28;20194;-54
2021/03/12 10:48:36;;;;;;;1.50;1.08;;;12.40;83.80;;;;;;5076153;28;20204;-55
2021/03/12 10:51:06;;;;;;;4.88;1.15;;;12.50;83.10;;;;;;5075201;28;20180;-55
2021/03/12 10:53:48;;;;;;;1.60;1.08;;;12.50;83.60;;;;;;5077425;28;20245;-53
2021/03/12 10:56:15;;;;;;;2.45;0.82;;;12.80;82.50;;;;;;5085450;28;20183;-57
2021/03/12 10:58:42;;;;;;;1.73;0.95;;;12.50;80.40;;;;;;5075678;28;20630;-56
2021/03/12 11:01:19;;;;;;;2.83;1.92;;;12.30;85.60;;;;;;5071941;28;20183;-58
2021/03/12 11:03:46;;;;;;;2.75;1.40;;;12.70;88.10;;;;;;5078029;28;20223;-55
2021/03/12 11:06:13;;;;;;;1.45;0.75;;;13.00;87.90;;;;;;5087292;28;20232;-56
2021/03/12 11:08:40;;;;;;;0.90;0.80;;;14.00;82.10;;;;;;5080076;28;20200;-55
2021/03/12 11:11:09;;;;;;;0.70;0.60;;;14.60;78.80;;;;;;5079955;28;20650;-55
2021/03/12 11:13:36;;;;;;;1.00;0.77;;;14.80;74.20;;;;;;5074536;28;20689;-57
2021/03/12 11:16:02;;;;;;;1.80;1.15;;;15.40;75.70;;;;;;5081412;28;20300;-56
2021/03/12 11:18:30;;;;;;;1.20;0.60;;;15.20;73.40;;;;;;5078794;28;20596;-53
2021/03/12 11:21:00;;;;;;;1.40;1.30;;;14.40;68.10;;;;;;5075679;28;20877;-53
2021/03/12 11:23:26;;;;;;;1.55;0.90;;;14.10;69.70;;;;;;5073140;28;20208;-55
2021/03/12 11:25:55;;;;;;;2.23;1.10;;;14.30;67.90;;;;;;5073220;28;20579;-54
2021/03/12 11:28:22;;;;;;;1.73;0.82;;;13.90;67.10;;;;;;5075210;28;20839;-54
2021/03/12 11:30:48;;;;;;;1.23;0.85;;;13.90;69.00;;;;;;5075652;28;20318;-53
2021/03/12 11:33:14;;;;;;;1.17;0.87;;;14.10;67.10;;;;;;5074596;28;20267;-54
2021/03/12 11:35:40;;;;;;;1.25;0.80;;;14.10;65.90;;;;;;5073103;28;20949;-56
2021/03/12 11:38:06;;;;;;;1.52;0.90;;;14.10;67.50;;;;;;5080209;28;20200;-52
2021/03/12 11:40:35;;;;;;;1.25;0.90;;;14.10;66.50;;;;;;5086977;28;20579;-52
2021/03/12 11:43:02;;;;;;;1.90;1.23;;;14.30;66.60;;;;;;5068939;28;20235;-55
2021/03/12 11:45:28;;;;;;;2.45;1.00;;;14.20;65.90;;;;;;5071438;28;20667;-56
2021/03/12 11:47:56;;;;;;;2.80;2.60;;;14.30;63.40;;;;;;5079858;28;20329;-53
2021/03/12 11:50:25;;;;;;;3.35;1.65;;;14.30;63.10;;;;;;5072308;28;20786;-55
2021/03/12 11:52:51;;;;;;;3.50;1.40;;;14.60;64.70;;;;;;5073403;28;20679;-55
2021/03/12 11:55:17;;;;;;;1.33;1.10;;;14.20;63.10;;;;;;5082164;28;20206;-56
2021/03/12 11:57:43;;;;;;;1.90;0.90;;;14.20;63.20;;;;;;5082876;28;20485;-55
2021/03/12 12:00:12;;;;;;;2.95;1.02;;;13.90;62.90;;;;;;5076639;28;20405;-56
2021/03/12 12:02:39;;;;;;;1.55;1.00;;;13.40;64.10;;;;;;5083058;28;20215;-55
2021/03/12 12:05:07;;;;;;;2.08;1.00;;;13.00;65.80;;;;;;5075887;28;20181;-56
2021/03/12 12:07:33;;;;;;;2.88;1.05;;;13.10;65.40;;;;;;5065864;28;20203;-54
2021/03/12 12:10:04;;;;;;;4.30;1.48;;;12.70;64.10;;;;;;5070606;28;20214;-55
2021/03/12 12:12:30;;;;;;;1.73;0.90;;;12.70;63.30;;;;;;5072945;28;20190;-55
2021/03/12 12:14:55;;;;;;;1.33;0.70;;;12.70;62.20;;;;;;5071666;28;20510;-55
2021/03/12 12:17:21;;;;;;;1.30;1.17;;;12.30;60.30;;;;;;5073624;28;20220;-56
2021/03/12 12:19:47;;;;;;;1.13;0.90;;;12.00;61.30;;;;;;5086796;28;20706;-56
2021/03/12 12:22:13;;;;;;;1.53;1.10;;;12.50;60.60;;;;;;5088082;28;20219;-55
2021/03/12 12:24:40;;;;;;;1.80;1.00;;;12.70;59.70;;;;;;5078629;28;20212;-56
2021/03/12 12:27:07;;;;;;;4.72;1.00;;;13.20;59.00;;;;;;5083792;28;20285;-56
2021/03/12 12:29:33;;;;;;;1.20;0.82;;;13.30;58.70;;;;;;5076382;28;20230;-55
2021/03/12 12:31:59;;;;;;;1.30;1.10;;;13.60;59.60;;;;;;5084602;28;20207;-55
2021/03/12 12:34:25;;;;;;;1.60;1.10;;;13.30;60.00;;;;;;5075663;28;20565;-55
2021/03/12 12:36:53;;;;;;;1.90;0.80;;;13.10;59.50;;;;;;5086744;28;20203;-55
2021/03/12 12:39:19;;;;;;;1.80;0.93;;;13.20;59.80;;;;;;5070920;28;20815;-55
2021/03/12 12:41:46;;;;;;;1.70;0.87;;;13.10;60.20;;;;;;5072639;28;20188;-54
2021/03/12 12:44:14;;;;;;;2.88;1.10;;;13.00;60.40;;;;;;5089529;28;20215;-54
2021/03/12 12:46:41;;;;;;;1.52;0.90;;;13.10;58.30;;;;;;5084315;28;20939;-54
2021/03/12 12:49:07;;;;;;;1.15;0.93;;;13.20;59.90;;;;;;5077526;28;20212;-55
2021/03/12 12:51:34;;;;;;;2.42;0.93;;;13.40;60.80;;;;;;5084949;28;20187;-54
2021/03/12 12:54:00;;;;;;;1.92;1.23;;;13.00;59.80;;;;;;5076188;28;20239;-53
2021/03/12 12:56:26;;;;;;;2.63;1.10;;;12.90;58.80;;;;;;5088660;28;20191;-52
2021/03/12 12:58:52;;;;;;;1.43;0.77;;;13.30;60.60;;;;;;5078200;28;20223;-53
2021/03/12 13:01:18;;;;;;;1.37;0.97;;;12.70;59.90;;;;;;5075533;28;20203;-52
2021/03/12 13:03:43;;;;;;;2.17;1.10;;;12.60;61.60;;;;;;5073584;28;20538;-55